Time;durP1;ratioP1;P1;durP2;ratioP2;P2;SDS_P1;SDS_P2;PMS_P1;PMS_P2;Temp;Humidity;BMP_temperature;BMP_pressure;BME280_temperature;BME280_humidity;BME280_pressure;Samples;Min_cycle;Max_cycle;Signal;HPM_P1;HPM_P2
2021/11/17 02:26:09;;;;;;;24.60;13.00;;;5.10;99.90;;;5.62;100.00;100933.22;4993357;28;20034;-80
2021/11/17 02:29:13;;;;;;;24.50;12.70;;;5.10;99.90;;;5.64;100.00;100925.41;4992265;28;20037;-79
2021/11/17 02:32:41;;;;;;;26.13;13.20;;;5.10;99.90;;;5.56;100.00;100917.84;4964985;28;20073;-79
2021/11/17 02:35:28;;;;;;;;;;;5.10;99.90;;;5.51;100.00;100899.44;4976063;28;20057;-79
2021/11/17 02:38:33;;;;;;;26.77;12.90;;;5.10;99.90;;;5.50;100.00;100897.78;4977958;28;19976;-78
2021/11/17 02:41:46;;;;;;;31.60;14.20;;;5.00;99.90;;;5.55;100.00;100902.38;4967554;28;20101;-78
2021/11/17 02:44:56;;;;;;;30.02;14.70;;;5.10;99.90;;;5.62;100.00;100902.75;4975520;28;20088;-78
2021/11/17 02:47:48;;;;;;;30.92;14.93;;;5.10;99.90;;;5.57;100.00;100903.69;4991774;28;20030;-79
2021/11/17 02:50:39;;;;;;;29.80;15.10;;;5.10;99.90;;;5.54;100.00;100890.47;4991824;28;20042;-78
2021/11/17 02:53:49;;;;;;;32.53;15.57;;;5.00;99.90;;;5.57;100.00;100891.78;4991616;28;20033;-78
2021/11/17 02:56:49;;;;;;;33.10;14.80;;;5.10;99.90;;;5.48;100.00;100882.63;4985680;28;20034;-78
2021/11/17 02:59:45;;;;;;;31.55;14.98;;;5.00;99.90;;;5.54;100.00;100889.66;4975722;28;20026;-78
2021/11/17 03:03:11;;;;;;;30.98;15.18;;;5.00;99.90;;;5.56;100.00;100890.97;4975510;28;20026;-78
2021/11/17 03:06:04;;;;;;;32.28;14.57;;;5.10;99.90;;;5.54;100.00;100895.19;4927089;28;20092;-79
2021/11/17 03:08:55;;;;;;;34.78;14.98;;;5.00;99.90;;;5.55;100.00;100894.06;4994671;28;20042;-79
2021/11/17 03:12:12;;;;;;;29.55;14.77;;;5.00;99.90;;;5.64;100.00;100904.06;4996390;28;20053;-78
2021/11/17 03:15:19;;;;;;;33.20;16.25;;;5.00;99.90;;;5.63;100.00;100891.34;4994702;28;20034;-79
2021/11/17 03:18:22;;;;;;;31.27;14.27;;;5.10;99.90;;;5.65;100.00;100891.03;4979136;28;20493;-78
2021/11/17 03:21:23;;;;;;;31.98;13.02;;;5.10;99.90;;;5.60;100.00;100888.38;5012681;28;20113;-78
2021/11/17 03:24:35;;;;;;;31.15;14.60;;;5.10;99.90;;;5.64;100.00;100875.53;4980990;28;20037;-78
2021/11/17 03:27:51;;;;;;;31.70;14.75;;;5.10;99.90;;;5.67;100.00;100881.25;4982690;28;20120;-79
2021/11/17 03:30:33;;;;;;;28.50;13.80;;;5.10;99.90;;;5.70;100.00;100888.94;4981318;28;20061;-79
2021/11/17 03:33:55;;;;;;;26.60;12.63;;;5.10;99.90;;;5.69;100.00;100897.53;4994376;28;20350;-78
2021/11/17 03:36:43;;;;;;;28.88;13.10;;;5.10;99.90;;;5.70;100.00;100901.97;4997266;28;20114;-79
2021/11/17 03:40:01;;;;;;;31.40;14.57;;;5.10;99.90;;;5.70;100.00;100891.69;4996137;28;20042;-79
2021/11/17 03:43:07;;;;;;;26.42;11.23;;;5.10;99.90;;;5.74;100.00;100891.88;4998920;28;20037;-78
2021/11/17 03:45:47;;;;;;;26.40;12.10;;;5.10;99.90;;;5.78;100.00;100901.16;5011790;28;20033;-78
2021/11/17 03:48:59;;;;;;;28.63;12.45;;;5.10;99.90;;;5.77;100.00;100914.22;4994084;28;20123;-79
2021/11/17 03:52:28;;;;;;;24.83;12.38;;;5.20;99.90;;;5.83;100.00;100921.25;4980555;28;20040;-78
2021/11/17 03:55:20;;;;;;;30.50;13.40;;;5.20;99.90;;;5.79;100.00;100916.66;4973714;28;20139;-78
2021/11/17 03:58:40;;;;;;;30.38;13.43;;;5.10;99.90;;;5.77;100.00;100913.41;4994320;28;20453;-77
2021/11/17 04:01:50;;;;;;;23.38;10.88;;;5.10;99.90;;;5.77;100.00;100914.22;4988036;28;20041;-79
2021/11/17 04:05:03;;;;;;;27.25;13.40;;;5.10;99.90;;;5.77;100.00;100917.00;4986335;28;20073;-79
2021/11/17 04:08:00;;;;;;;23.10;12.15;;;5.20;99.90;;;5.78;100.00;100926.09;4954084;28;20045;-80
2021/11/17 04:10:52;;;;;;;;;;;5.20;99.90;;;5.75;100.00;100927.56;4994531;28;20022;-78
2021/11/17 04:14:06;;;;;;;24.02;11.20;;;5.10;99.90;;;5.74;100.00;100930.69;4975943;28;19944;-80
2021/11/17 04:17:19;;;;;;;24.95;12.00;;;5.20;99.90;;;5.77;100.00;100928.09;4998452;28;20030;-80
2021/11/17 04:20:41;;;;;;;24.20;11.45;;;5.10;99.90;;;5.74;100.00;100930.69;4991578;28;20046;-78
2021/11/17 04:24:04;;;;;;;26.02;11.43;;;5.10;99.90;;;5.71;100.00;100929.38;4981467;28;20031;-79
2021/11/17 04:27:03;;;;;;;26.25;11.75;;;5.10;99.90;;;5.72;100.00;100932.94;4975706;28;20045;-80
2021/11/17 04:30:24;;;;;;;22.15;11.80;;;5.10;99.90;;;5.69;100.00;100939.94;4979518;28;20056;-78
2021/11/17 04:33:50;;;;;;;28.63;12.40;;;5.10;99.90;;;5.73;100.00;100940.94;4927167;28;20037;-77
2021/11/17 04:36:59;;;;;;;25.88;13.35;;;5.10;99.90;;;5.62;100.00;100939.56;4953223;28;20108;-78
2021/11/17 04:39:59;;;;;;;25.98;12.55;;;5.10;99.90;;;5.69;100.00;100934.41;5005935;28;20022;-80
2021/11/17 04:43:02;;;;;;;27.17;13.15;;;5.10;99.90;;;5.61;100.00;100928.81;4997754;28;20026;-79
2021/11/17 04:46:14;;;;;;;28.08;13.38;;;5.10;99.90;;;5.65;100.00;100927.84;4997273;28;20018;-81
2021/11/17 04:49:36;;;;;;;27.92;13.80;;;5.10;99.90;;;5.68;100.00;100937.50;4958601;28;20042;-78
2021/11/17 04:52:22;;;;;;;35.13;16.17;;;5.10;99.90;;;5.66;100.00;100946.13;4982290;28;20553;-80
2021/11/17 04:55:42;;;;;;;35.88;16.25;;;5.10;99.90;;;5.67;100.00;100944.16;4978429;28;20035;-79
2021/11/17 04:58:42;;;;;;;34.67;15.80;;;5.10;99.90;;;5.69;100.00;100952.97;4985429;28;20038;-79
2021/11/17 05:01:57;;;;;;;30.98;16.25;;;5.10;99.90;;;5.78;100.00;100974.06;4995690;28;20027;-78
2021/11/17 05:04:55;;;;;;;32.70;16.15;;;5.10;99.90;;;5.80;100.00;100970.97;4994068;28;20433;-79
2021/11/17 05:07:52;;;;;;;37.20;17.13;;;5.10;99.90;;;5.82;100.00;100969.50;4980373;28;20030;-79
2021/11/17 05:10:48;;;;;;;33.25;15.80;;;5.20;99.90;;;5.84;100.00;100974.75;4997365;28;20442;-79
2021/11/17 05:14:04;;;;;;;36.72;17.15;;;5.20;99.90;;;5.82;100.00;100960.38;4984370;28;20034;-80
2021/11/17 05:16:55;;;;;;;41.42;19.20;;;5.20;99.90;;;5.81;100.00;100965.09;5001748;28;20029;-81
2021/11/17 05:19:42;;;;;;;41.85;17.95;;;5.20;99.90;;;5.76;100.00;100961.66;5015217;28;20053;-78
2021/11/17 05:22:48;;;;;;;42.08;17.75;;;5.10;99.90;;;5.74;100.00;100955.63;4997423;28;20129;-78
2021/11/17 05:25:22;;;;;;;37.92;18.40;;;5.10;99.90;;;5.74;100.00;100945.34;4997064;28;20026;-76
2021/11/17 05:28:12;;;;;;;42.50;18.33;;;5.10;99.90;;;5.73;100.00;100937.34;4997182;28;20066;-80
2021/11/17 05:31:11;;;;;;;38.20;18.52;;;5.20;99.90;;;5.74;100.00;100942.59;4998957;28;20026;-79
2021/11/17 05:34:37;;;;;;;40.05;19.13;;;5.20;99.90;;;5.74;100.00;100936.22;5000849;28;20091;-79
2021/11/17 05:37:48;;;;;;;41.63;18.58;;;5.10;99.90;;;5.74;100.00;100945.34;4975023;28;20069;-80
2021/11/17 05:40:55;;;;;;;39.15;17.45;;;5.20;99.90;;;5.70;100.00;100930.50;5002207;28;20046;-79
2021/11/17 05:43:54;;;;;;;41.08;18.13;;;5.20;99.90;;;5.80;100.00;100940.50;4998426;28;20053;-81
2021/11/17 05:47:13;;;;;;;44.67;20.02;;;5.20;99.90;;;5.75;100.00;100930.34;5031414;28;20057;-80
2021/11/17 05:50:36;;;;;;;42.45;18.90;;;5.20;99.90;;;5.72;100.00;100936.53;5032412;28;20038;-82
2021/11/17 05:54:27;;;;;;;45.00;18.02;;;5.20;99.90;;;5.78;100.00;100934.44;4940546;29;20086;-81
2021/11/17 05:57:50;;;;;;;42.58;19.88;;;5.20;99.90;;;5.76;100.00;100922.84;4920983;29;20050;-79
2021/11/17 06:01:04;;;;;;;45.85;19.23;;;5.30;99.90;;;5.77;100.00;100918.94;4944130;28;20042;-82
2021/11/17 06:04:03;;;;;;;41.70;18.15;;;5.30;99.90;;;5.84;100.00;100935.94;4997821;28;20457;-79
2021/11/17 06:06:36;;;;;;;41.00;18.50;;;5.30;99.90;;;5.89;100.00;100954.41;4998661;28;20033;-81
2021/11/17 06:09:03;;;;;;;44.13;20.63;;;5.30;99.90;;;5.90;100.00;100933.88;5012632;28;20072;-81
2021/11/17 06:12:03;;;;;;;40.97;18.88;;;5.20;99.90;;;5.88;100.00;100936.13;5006729;28;20033;-82
2021/11/17 06:14:38;;;;;;;42.55;19.05;;;5.30;99.90;;;5.98;100.00;100933.91;5082213;23;20044;-83
2021/11/17 06:17:18;;;;;;;45.88;19.83;;;5.30;99.90;;;5.88;100.00;100916.72;5044556;28;20029;-86
2021/11/17 06:19:50;;;;;;;46.22;19.85;;;5.30;99.90;;;5.94;100.00;100918.25;5044411;28;20029;-83
2021/11/17 06:22:21;;;;;;;47.47;20.20;;;5.30;99.90;;;5.88;100.00;100900.91;5058759;28;20036;-86
2021/11/17 06:24:53;;;;;;;46.58;19.92;;;5.30;99.90;;;5.77;100.00;100877.38;5038725;28;20050;-83
2021/11/17 06:27:31;;;;;;;42.92;20.10;;;5.30;99.90;;;5.72;100.00;100869.19;5041209;28;20587;-85
2021/11/17 06:29:59;;;;;;;40.63;18.80;;;5.30;99.90;;;5.75;100.00;100869.38;5057135;28;20389;-85
2021/11/17 06:32:28;;;;;;;36.80;18.40;;;5.30;99.90;;;5.71;100.00;100867.56;5042422;28;20028;-85
2021/11/17 06:35:01;;;;;;;38.13;18.80;;;5.30;99.90;;;5.70;100.00;100880.63;5042829;28;20021;-85
2021/11/17 06:37:29;;;;;;;35.33;17.02;;;5.30;99.90;;;5.76;100.00;100887.66;5049504;28;20048;-80
2021/11/17 06:40:04;;;;;;;39.47;18.30;;;5.20;99.90;;;5.74;100.00;100892.69;5054023;28;20202;-86
2021/11/17 06:43:00;;;;;;;38.00;17.83;;;5.20;99.90;;;5.77;100.00;100910.63;5052564;28;20017;-79
2021/11/17 06:45:35;;;;;;;34.00;17.25;;;5.20;99.90;;;5.78;100.00;100906.72;5055417;28;20041;-84
2021/11/17 06:48:01;;;;;;;35.17;16.85;;;5.10;99.90;;;5.73;100.00;100913.22;5042754;28;20036;-85
2021/11/17 06:50:28;;;;;;;40.45;18.15;;;5.10;99.90;;;5.78;100.00;100906.72;5042107;28;20074;-84
2021/11/17 06:52:55;;;;;;;34.40;17.58;;;5.10;99.90;;;5.78;100.00;100901.16;5059364;28;20044;-85
2021/11/17 06:55:21;;;;;;;40.72;18.75;;;5.20;99.90;;;5.86;100.00;100908.75;5043080;28;20036;-83
2021/11/17 06:57:47;;;;;;;38.13;18.17;;;5.20;99.90;;;5.93;100.00;100913.81;5059467;28;20045;-85
2021/11/17 07:00:21;;;;;;;34.20;16.70;;;5.30;99.90;;;5.97;100.00;100918.41;5051468;28;20029;-86
2021/11/17 07:02:48;;;;;;;38.13;16.88;;;5.30;99.90;;;5.99;100.00;100918.09;5055577;28;20056;-82
2021/11/17 07:05:16;;;;;;;37.63;15.45;;;5.40;99.90;;;6.08;100.00;100919.75;5056615;28;20290;-80
2021/11/17 07:07:43;;;;;;;35.75;17.77;;;5.40;99.90;;;6.12;100.00;100917.97;5057130;28;20041;-82
2021/11/17 07:10:14;;;;;;;37.88;18.17;;;5.40;99.90;;;6.08;100.00;100922.53;5050079;28;20041;-84
2021/11/17 07:12:41;;;;;;;38.08;17.08;;;5.50;99.90;;;6.15;100.00;100925.66;5040134;28;20025;-82
2021/11/17 07:15:12;;;;;;;36.03;17.48;;;5.50;99.90;;;6.19;100.00;100928.59;5040829;28;20063;-83
2021/11/17 07:17:39;;;;;;;38.55;17.25;;;5.60;99.90;;;6.32;100.00;100930.44;5038368;28;20104;-81
2021/11/17 07:20:07;;;;;;;32.20;15.30;;;5.70;99.90;;;6.38;100.00;100929.13;5041142;28;20032;-83
2021/11/17 07:22:33;;;;;;;38.40;16.58;;;5.70;99.90;;;6.41;100.00;100933.22;5040850;28;20052;-80
2021/11/17 07:25:00;;;;;;;33.53;17.05;;;5.70;99.90;;;6.37;100.00;100938.59;5040221;28;20538;-85
2021/11/17 07:27:26;;;;;;;39.35;17.27;;;5.70;99.90;;;6.31;100.00;100935.16;5039017;28;20036;-84
2021/11/17 07:29:55;;;;;;;34.03;17.30;;;5.80;99.90;;;6.35;100.00;100950.03;5056308;28;20129;-85
2021/11/17 07:32:26;;;;;;;39.30;17.42;;;5.80;99.90;;;6.43;100.00;100945.59;5038850;28;20124;-86
2021/11/17 07:34:53;;;;;;;34.67;16.75;;;5.80;99.90;;;6.35;100.00;100943.66;5037363;28;20057;-86
2021/11/17 07:37:20;;;;;;;37.17;17.40;;;5.90;99.90;;;6.39;100.00;100949.38;5037303;28;20575;-85
2021/11/17 07:39:46;;;;;;;39.78;16.50;;;5.90;99.90;;;6.42;100.00;100938.44;5038683;28;20396;-85
2021/11/17 07:42:15;;;;;;;37.20;17.52;;;5.90;99.90;;;6.50;100.00;100931.25;5037809;28;20025;-83
2021/11/17 07:44:43;;;;;;;35.22;15.73;;;5.90;99.90;;;6.58;100.00;100933.25;5038303;28;20036;-85
2021/11/17 07:47:11;;;;;;;38.58;16.55;;;6.00;99.90;;;6.52;100.00;100923.44;5053865;28;20120;-83
2021/11/17 07:49:38;;;;;;;38.38;17.00;;;6.00;99.90;;;6.52;100.00;100921.47;5037962;28;20037;-84
2021/11/17 07:52:05;;;;;;;36.88;16.38;;;6.00;99.90;;;6.73;100.00;100927.22;5053497;28;20452;-85
2021/11/17 07:54:33;;;;;;;37.38;17.08;;;6.10;99.90;;;6.81;100.00;100935.53;5036998;28;20060;-84
2021/11/17 07:57:03;;;;;;;29.67;14.73;;;6.20;99.90;;;6.83;100.00;100936.03;5035770;28;20040;-82
2021/11/17 07:59:32;;;;;;;32.70;16.25;;;6.20;99.90;;;6.90;100.00;100941.91;5053538;28;20030;-84
2021/11/17 08:02:10;;;;;;;31.30;15.55;;;6.30;99.90;;;6.90;100.00;100939.13;5037343;28;20408;-85
2021/11/17 08:04:41;;;;;;;33.40;15.95;;;6.30;99.90;;;7.05;100.00;100937.84;5036132;28;20186;-84
2021/11/17 08:07:19;;;;;;;35.03;15.57;;;6.40;99.90;;;7.24;100.00;100943.03;5037332;28;20038;-83
2021/11/17 08:09:50;;;;;;;32.00;16.23;;;6.60;99.90;;;7.51;100.00;100947.41;5053899;28;20342;-86
2021/11/17 08:12:19;;;;;;;32.75;15.45;;;6.70;99.90;;;7.65;100.00;100953.59;5053702;28;20033;-85
2021/11/17 08:14:45;;;;;;;32.60;14.95;;;6.90;99.90;;;7.66;100.00;100961.59;5036367;28;20037;-84
2021/11/17 08:17:13;;;;;;;27.15;14.57;;;6.90;99.90;;;7.69;100.00;100958.16;5036043;28;20036;-86
2021/11/17 08:19:40;;;;;;;26.65;14.43;;;7.00;99.90;;;7.68;100.00;100950.13;5036959;28;20040;-85
2021/11/17 08:22:08;;;;;;;26.45;14.55;;;7.10;99.90;;;7.83;100.00;100952.41;5037644;28;20052;-84
2021/11/17 08:24:39;;;;;;;29.95;16.33;;;7.10;99.90;;;7.88;100.00;100957.75;5035462;28;20030;-85
2021/11/17 08:27:13;;;;;;;26.02;14.68;;;7.10;99.90;;;7.76;100.00;100955.69;5037428;28;20055;-84
2021/11/17 08:29:39;;;;;;;28.02;15.48;;;7.10;99.90;;;7.84;100.00;100960.41;5037643;28;20079;-83
2021/11/17 08:32:07;;;;;;;30.92;14.85;;;7.10;99.90;;;7.81;100.00;100963.84;5037755;28;20032;-82
2021/11/17 08:34:38;;;;;;;30.55;15.80;;;7.10;99.90;;;7.81;100.00;100958.28;5038323;28;20026;-84
2021/11/17 08:37:07;;;;;;;30.15;16.98;;;7.10;99.90;;;7.86;100.00;100972.03;5038636;28;20030;-86
2021/11/17 08:39:34;;;;;;;31.85;17.40;;;7.20;99.90;;;7.92;100.00;100965.13;5037904;28;20053;-86
2021/11/17 08:42:01;;;;;;;31.77;16.08;;;7.20;99.90;;;7.77;100.00;100962.06;5039066;28;20029;-84
2021/11/17 08:44:30;;;;;;;30.48;15.50;;;7.30;99.90;;;8.01;100.00;100955.91;5065128;28;20040;-83
2021/11/17 08:46:58;;;;;;;30.77;16.42;;;7.30;99.90;;;7.97;100.00;100962.16;5044844;28;20057;-86
2021/11/17 08:49:24;;;;;;;35.63;17.55;;;7.30;99.90;;;7.94;100.00;100956.44;5035651;28;20053;-84
2021/11/17 08:51:52;;;;;;;28.48;16.13;;;7.30;99.90;;;8.04;100.00;100955.25;5035305;28;20030;-82
2021/11/17 08:54:19;;;;;;;34.17;17.10;;;7.30;99.90;;;7.99;100.00;100952.66;5050425;28;20441;-84
2021/11/17 08:56:46;;;;;;;29.55;17.38;;;7.30;99.90;;;7.83;100.00;100953.19;5034743;28;20459;-84
2021/11/17 08:59:13;;;;;;;39.30;19.67;;;7.30;99.90;;;7.79;100.00;100948.66;5035581;28;20120;-83
2021/11/17 09:01:41;;;;;;;30.70;17.17;;;7.30;99.90;;;7.89;100.00;100956.63;5040554;28;20053;-85
2021/11/17 09:04:08;;;;;;;32.78;17.67;;;7.30;99.90;;;7.83;100.00;100953.19;5051316;28;20022;-84
2021/11/17 09:06:37;;;;;;;32.92;18.02;;;7.30;99.90;;;7.96;100.00;100946.59;5055938;28;20025;-84
2021/11/17 09:09:06;;;;;;;32.80;18.17;;;7.30;99.90;;;7.95;100.00;100941.38;5056364;28;20029;-84
2021/11/17 09:11:40;;;;;;;35.03;18.98;;;7.40;99.90;;;8.06;100.00;100950.19;5040115;28;20053;-84
2021/11/17 09:14:08;;;;;;;31.98;17.27;;;7.40;99.90;;;8.20;100.00;100942.41;5038092;28;20033;-83
2021/11/17 09:16:39;;;;;;;37.75;17.70;;;7.50;99.90;;;8.14;100.00;100961.25;5057498;28;20033;-85
2021/11/17 09:19:10;;;;;;;34.22;18.55;;;7.50;99.90;;;8.15;100.00;100948.19;5059018;28;20037;-87
2021/11/17 09:21:46;;;;;;;35.42;18.42;;;7.60;99.90;;;8.22;100.00;100952.03;5042373;28;20040;-85
2021/11/17 09:24:16;;;;;;;32.35;17.52;;;7.60;99.90;;;8.14;100.00;100952.09;5043268;28;20044;-84
2021/11/17 09:26:46;;;;;;;31.45;16.75;;;7.60;99.90;;;8.24;100.00;100960.91;5043316;28;20029;-85
2021/11/17 09:29:13;;;;;;;30.80;17.45;;;7.60;99.90;;;8.25;100.00;100951.38;5042517;28;20029;-87
2021/11/17 09:31:45;;;;;;;32.10;17.23;;;7.60;99.90;;;8.21;100.00;100958.78;5043241;28;20036;-84
2021/11/17 09:34:13;;;;;;;27.50;16.13;;;7.60;99.90;;;8.31;100.00;100957.63;5059548;28;20094;-86
2021/11/17 09:36:41;;;;;;;27.73;16.88;;;7.70;99.90;;;8.27;100.00;100948.28;5043563;28;20501;-84
2021/11/17 09:39:11;;;;;;;27.35;16.17;;;7.70;99.90;;;8.23;100.00;100959.25;5043415;28;20033;-86
2021/11/17 09:41:54;;;;;;;29.83;14.93;;;7.60;99.90;;;8.26;100.00;100953.00;5058256;28;20265;-85
2021/11/17 09:44:41;;;;;;;26.13;16.13;;;7.70;99.90;;;8.31;100.00;100946.47;5043486;28;20021;-86
2021/11/17 09:47:14;;;;;;;28.17;15.18;;;7.70;99.90;;;8.39;100.00;100953.97;5060150;28;20026;-85
2021/11/17 09:50:01;;;;;;;26.77;15.60;;;7.70;99.90;;;8.45;100.00;100955.38;5042694;28;20092;-85
2021/11/17 09:52:38;;;;;;;27.25;16.48;;;7.90;99.90;;;8.44;100.00;100953.78;5044057;28;20030;-85
2021/11/17 09:55:33;;;;;;;24.67;14.35;;;7.80;99.90;;;8.58;100.00;100950.72;5045202;28;20025;-83
2021/11/17 09:58:18;;;;;;;24.20;14.40;;;7.90;99.90;;;8.54;100.00;100945.00;5043421;28;20116;-84
2021/11/17 10:01:17;;;;;;;26.58;13.73;;;8.00;99.90;;;8.74;100.00;100966.50;5044673;28;20091;-84
2021/11/17 10:04:05;;;;;;;23.98;14.10;;;8.10;99.90;;;8.86;100.00;100960.22;5046136;28;20025;-85
2021/11/17 10:10:11;;;;;;;24.13;14.85;;;8.10;99.90;;;8.89;100.00;100977.03;5041282;28;20123;-83
2021/11/17 10:13:16;;;;;;;26.98;15.55;;;8.20;99.90;;;8.78;100.00;100986.16;5040272;28;20025;-85
2021/11/17 10:15:51;;;;;;;28.02;14.77;;;8.10;99.90;;;8.76;100.00;100992.06;5039720;28;20026;-85
2021/11/17 10:18:17;;;;;;;29.50;14.07;;;8.10;99.90;;;8.76;100.00;100992.06;5055985;28;20044;-84
2021/11/17 10:20:52;;;;;;;23.92;14.93;;;8.00;99.90;;;8.61;100.00;100984.28;5058198;28;20371;-84
2021/11/17 10:23:43;;;;;;;24.80;14.13;;;8.00;99.90;;;8.66;100.00;100988.84;5043240;28;20053;-84
2021/11/17 10:26:16;;;;;;;26.13;14.40;;;8.00;99.90;;;8.73;100.00;100992.72;5043946;28;20452;-85
2021/11/17 10:29:01;;;;;;;24.00;13.32;;;8.00;99.90;;;8.77;100.00;100987.28;5047110;28;20017;-83
2021/11/17 10:32:14;;;;;;;26.13;14.35;;;8.10;99.90;;;8.77;100.00;100990.91;5043197;28;20040;-82
2021/11/17 10:35:13;;;;;;;24.98;13.05;;;8.10;99.90;;;8.77;100.00;100985.31;5058155;28;20030;-85
2021/11/17 10:37:58;;;;;;;23.92;13.45;;;8.10;99.90;;;8.78;100.00;100977.78;5057700;28;20032;-84
2021/11/17 10:40:33;;;;;;;22.88;12.95;;;8.10;99.90;;;8.91;100.00;100985.91;5056907;28;20035;-85
2021/11/17 10:43:08;;;;;;;25.25;13.25;;;8.20;99.90;;;8.99;100.00;100978.59;5041489;28;20067;-85
2021/11/17 10:45:50;;;;;;;24.00;14.02;;;8.20;99.90;;;8.99;100.00;100986.97;5043134;28;20064;-85
2021/11/17 10:48:38;;;;;;;23.90;13.13;;;8.30;99.90;;;9.14;100.00;100983.59;5065961;28;20033;-86
2021/11/17 10:51:19;;;;;;;28.48;13.68;;;8.40;99.90;;;9.21;100.00;100980.25;5042373;28;20099;-81
2021/11/17 10:53:55;;;;;;;22.35;13.25;;;8.50;99.90;;;9.25;100.00;100979.22;5055596;28;20092;-85
2021/11/17 10:56:27;;;;;;;24.67;12.95;;;8.50;99.90;;;9.32;100.00;100978.66;5056999;28;20025;-86
2021/11/17 10:59:01;;;;;;;22.70;13.30;;;8.50;99.90;;;9.30;100.00;100979.03;5056513;28;20033;-85
2021/11/17 11:01:43;;;;;;;22.58;13.75;;;8.60;99.90;;;9.34;100.00;100979.94;5039689;28;20033;-86
2021/11/17 11:04:40;;;;;;;23.13;14.38;;;8.60;99.90;;;9.20;100.00;100973.03;5039168;28;20117;-86
2021/11/17 11:08:11;;;;;;;28.27;15.20;;;8.60;99.90;;;9.31;100.00;100977.84;5056724;28;20031;-85
2021/11/17 11:10:54;;;;;;;24.95;13.93;;;8.60;99.90;;;9.29;100.00;100976.56;5040235;28;20037;-83
2021/11/17 11:13:37;;;;;;;26.27;13.77;;;8.70;99.90;;;9.31;100.00;100977.84;5035358;28;20045;-83
2021/11/17 11:16:37;;;;;;;27.65;14.43;;;8.60;99.90;;;9.30;100.00;100973.44;5019265;28;20052;-86
2021/11/17 11:19:10;;;;;;;29.90;15.20;;;8.60;99.90;;;9.25;100.00;100972.81;5020604;28;20090;-85
2021/11/17 11:22:09;;;;;;;28.80;14.80;;;8.60;99.90;;;9.29;100.00;100973.78;5019276;28;20068;-85
2021/11/17 11:24:50;;;;;;;27.52;14.52;;;8.60;99.90;;;9.20;100.00;100964.69;5012322;28;20034;-84
2021/11/17 11:27:27;;;;;;;32.95;16.02;;;8.60;99.90;;;9.19;100.00;100968.63;5019777;28;20053;-86
2021/11/17 11:30:07;;;;;;;29.15;15.60;;;8.50;99.90;;;9.27;100.00;100967.75;5019533;28;20034;-85
2021/11/17 11:32:33;;;;;;;31.23;16.00;;;8.60;99.90;;;9.15;100.00;100978.84;5018978;28;20033;-84
2021/11/17 11:34:59;;;;;;;29.85;15.82;;;8.50;99.90;;;9.20;100.00;100981.41;5020010;28;20075;-84
2021/11/17 11:37:25;;;;;;;29.10;14.35;;;8.50;99.90;;;9.23;100.00;100986.28;5018354;28;20045;-85
2021/11/17 11:40:21;;;;;;;27.50;13.93;;;8.50;99.90;;;9.20;100.00;100978.63;5018278;28;20405;-86
2021/11/17 11:43:07;;;;;;;30.85;15.82;;;8.50;99.90;;;9.07;100.00;100988.88;4965446;28;20443;-84
2021/11/17 11:45:48;;;;;;;29.98;15.40;;;8.40;99.90;;;9.10;100.00;100981.81;5018851;28;20034;-82
2021/11/17 11:48:42;;;;;;;30.63;15.68;;;8.40;99.90;;;9.21;100.00;100977.47;5017438;28;20433;-87
2021/11/17 11:51:42;;;;;;;34.55;15.65;;;8.50;99.90;;;9.19;100.00;100988.94;5016770;28;20034;-85
2021/11/17 11:54:27;;;;;;;30.70;16.42;;;8.50;99.90;;;9.34;100.00;100976.38;5017168;28;20110;-85
2021/11/17 11:57:38;;;;;;;37.53;18.00;;;8.60;99.90;;;9.28;100.00;100974.97;5016672;28;20093;-84
2021/11/17 12:00:08;;;;;;;29.70;15.23;;;8.60;99.90;;;9.29;100.00;100976.56;4998350;28;20069;-87
2021/11/17 12:02:59;;;;;;;37.20;16.75;;;8.60;99.90;;;9.24;100.00;100994.34;5018200;28;20022;-86
2021/11/17 12:06:01;;;;;;;36.63;16.70;;;8.50;99.90;;;9.18;100.00;100981.75;5018694;28;20040;-86
2021/11/17 12:08:53;;;;;;;37.58;16.95;;;8.50;99.90;;;9.19;100.00;100988.13;5013966;28;20069;-84
2021/11/17 12:11:31;;;;;;;40.10;18.52;;;8.50;99.90;;;9.08;100.00;100982.16;5019231;28;20022;-85
2021/11/17 12:14:10;;;;;;;36.78;16.77;;;8.40;99.90;;;9.05;100.00;100990.38;5019616;28;20497;-85
2021/11/17 12:16:42;;;;;;;40.53;18.38;;;8.30;99.90;;;9.00;100.00;100997.78;5017640;28;20029;-86
2021/11/17 12:19:15;;;;;;;39.33;17.63;;;8.20;99.90;;;8.90;100.00;100998.19;5018695;28;20529;-87
2021/11/17 12:21:43;;;;;;;38.20;18.73;;;8.20;99.90;;;8.85;100.00;101000.34;5018250;28;20083;-85
2021/11/17 12:24:27;;;;;;;36.90;17.92;;;8.10;99.90;;;8.82;100.00;100998.25;5017962;28;20033;-83
2021/11/17 12:27:30;;;;;;;35.22;18.33;;;8.10;99.90;;;8.78;100.00;101006.47;5015909;28;20030;-85
2021/11/17 12:30:10;;;;;;;40.65;18.85;;;8.10;99.90;;;8.81;100.00;101016.09;5022320;28;20053;-84
2021/11/17 12:33:02;;;;;;;41.85;20.50;;;8.10;99.90;;;8.80;100.00;101034.78;5033593;28;20022;-82
2021/11/17 12:35:43;;;;;;;37.25;18.33;;;8.00;99.90;;;8.62;100.00;101026.88;5017128;28;20030;-85
2021/11/17 12:38:27;;;;;;;35.25;16.48;;;8.00;99.90;;;8.62;100.00;101026.88;5017439;28;20632;-85
2021/11/17 12:41:24;;;;;;;42.03;20.17;;;8.00;99.90;;;8.73;100.00;101025.34;5016274;28;20032;-82
2021/11/17 12:44:22;;;;;;;38.92;18.42;;;8.00;99.90;;;8.75;100.00;101039.75;5016066;28;20141;-85
2021/11/17 12:47:18;;;;;;;41.20;19.48;;;8.00;99.90;;;8.68;100.00;101039.44;5022443;28;20097;-84
2021/11/17 12:50:04;;;;;;;37.13;18.53;;;7.90;99.90;;;8.70;100.00;101045.50;5033099;28;20038;-83
2021/11/17 12:53:02;;;;;;;43.20;18.13;;;8.00;99.90;;;8.75;100.00;101046.13;5033641;28;20056;-86
2021/11/17 12:55:51;;;;;;;41.35;19.95;;;8.00;99.90;;;8.74;100.00;101050.06;5024429;28;20432;-84
2021/11/17 12:58:57;;;;;;;45.83;21.77;;;8.00;99.90;;;8.73;100.00;101050.41;5025059;28;20171;-87
2021/11/17 13:01:29;;;;;;;49.53;21.40;;;8.00;99.90;;;8.69;100.00;101053.03;5025114;28;20057;-87
2021/11/17 13:04:29;;;;;;;50.15;21.80;;;8.00;99.90;;;8.74;100.00;101052.03;5024966;28;20030;-87
2021/11/17 13:07:11;;;;;;;56.17;22.55;;;8.00;99.90;;;8.75;100.00;101051.69;5022802;28;20026;-86
2021/11/17 13:09:41;;;;;;;55.47;23.00;;;8.00;99.90;;;8.75;100.00;101050.88;5036126;28;20029;-87
2021/11/17 13:12:08;;;;;;;46.30;20.40;;;8.00;99.90;;;8.79;100.00;101052.66;5044787;28;20055;-89
2021/11/17 13:14:58;;;;;;;53.58;22.02;;;8.00;99.90;;;8.85;100.00;101058.84;5060106;28;20030;-85
2021/11/17 13:17:33;;;;;;;46.10;20.13;;;8.10;99.90;;;8.86;100.00;101047.34;5043341;28;20593;-87
2021/11/17 13:20:45;;;;;;;47.53;20.55;;;8.10;99.90;;;8.92;100.00;101039.66;5061832;28;20033;-81
2021/11/17 13:23:11;;;;;;;47.53;20.40;;;8.20;99.90;;;9.05;100.00;101038.56;5058449;28;20036;-81
2021/11/17 13:26:11;;;;;;;42.45;18.90;;;8.30;99.90;;;9.13;100.00;101037.69;5087156;22;20033;-81
2021/11/17 13:28:51;;;;;;;34.72;17.80;;;8.30;99.90;;;9.21;100.00;101045.19;5057015;28;20040;-81
2021/11/17 13:31:38;;;;;;;42.00;17.00;;;8.40;99.90;;;9.19;100.00;101050.25;5070773;28;20538;-79
2021/11/17 13:34:41;;;;;;;37.45;18.13;;;8.40;99.90;;;9.21;100.00;101047.16;5080941;28;20365;-83
2021/11/17 13:37:24;;;;;;;36.47;17.33;;;8.40;99.90;;;9.24;100.00;101038.09;5059869;28;20033;-82
2021/11/17 13:40:09;;;;;;;33.47;16.52;;;8.40;99.90;;;9.25;100.00;101048.06;5059554;28;20029;-82
2021/11/17 13:42:36;;;;;;;35.92;17.00;;;8.50;99.90;;;9.19;100.00;101036.31;5061683;28;20036;-83
2021/11/17 13:45:27;;;;;;;33.17;17.00;;;8.40;99.90;;;9.30;100.00;101034.78;5062807;28;20542;-83
2021/11/17 13:47:54;;;;;;;36.15;16.77;;;8.50;99.90;;;9.19;100.00;101035.50;5062923;28;20307;-84
2021/11/17 13:50:34;;;;;;;37.10;18.20;;;8.50;99.90;;;9.15;100.00;101037.34;5062639;28;20040;-84
2021/11/17 13:53:06;;;;;;;45.05;19.20;;;8.50;99.90;;;9.19;100.00;101039.09;5064570;28;20032;-85